createdAt,value
2014-10-16T07:27:17.089Z,753
2014-10-16T07:27:35.418Z,753
2014-10-16T07:27:53.730Z,753
2014-10-16T07:28:12.231Z,753
2014-10-16T07:28:30.340Z,753
2014-10-16T07:28:48.700Z,753
2014-10-16T07:29:06.997Z,753
2014-10-16T07:36:05.872Z,754
2014-10-16T07:36:24.372Z,754
2014-10-16T07:36:42.497Z,754
2014-10-16T07:37:01.012Z,754
2014-10-16T07:37:19.325Z,754
2014-10-16T07:37:37.434Z,753
2014-10-16T07:37:55.747Z,754
2014-10-16T07:38:14.059Z,754
2014-10-16T07:38:32.575Z,754
2014-10-16T07:38:50.872Z,754
2014-10-16T07:39:09.184Z,754
2014-10-16T07:39:27.497Z,754
2014-10-16T07:39:45.622Z,754
2014-10-16T07:40:03.919Z,754
2014-10-16T07:40:22.247Z,754
2014-10-16T07:40:40.747Z,754
2014-10-16T07:40:58.856Z,754
2014-10-16T07:41:17.372Z,754
2014-10-16T07:41:35.684Z,754
2014-10-16T07:41:53.997Z,754
2014-10-16T08:00:27.872Z,753
2014-10-16T08:00:46.169Z,753
2014-10-16T08:01:04.481Z,753
2014-10-16T08:01:22.794Z,753
2014-10-16T08:01:40.903Z,753
2014-10-16T08:01:59.419Z,753
2014-10-16T08:02:17.528Z,754
2014-10-16T08:02:36.028Z,753
2014-10-16T08:10:33.809Z,754
2014-10-16T08:10:52.122Z,754
2014-10-16T08:11:10.419Z,754
2014-10-16T08:11:28.934Z,754
2014-10-16T08:11:47.044Z,754
2014-10-16T08:43:17.075Z,522
2014-10-16T08:43:35.434Z,522
2014-10-16T08:43:53.762Z,522
2014-10-16T08:44:12.075Z,522
2014-10-16T08:44:30.590Z,520
2014-10-16T08:44:48.699Z,498
2014-10-16T08:45:07.214Z,522
2014-10-16T08:45:25.324Z,522
2014-10-16T08:45:43.825Z,521
2014-10-16T08:46:05.653Z,525
2014-10-16T08:46:23.965Z,526
2014-10-16T08:46:42.278Z,526
2014-10-16T08:47:00.590Z,527
2014-10-16T08:47:19.106Z,532
2014-10-16T08:47:37.215Z,532
2014-10-16T08:49:58.856Z,540
2014-10-16T08:50:16.278Z,540
2014-10-16T08:50:34.590Z,542
2014-10-16T08:50:53.106Z,543
2014-10-16T08:51:11.215Z,544
2014-10-16T08:51:29.731Z,545
2014-10-16T08:51:47.840Z,547
2014-10-16T08:52:06.153Z,549
2014-10-16T08:52:24.450Z,550
2014-10-16T08:52:42.761Z,552
2014-10-16T08:53:01.089Z,560
2014-10-16T08:53:19.386Z,506
2014-10-16T08:53:37.699Z,561
2014-10-16T08:53:56.028Z,563
2014-10-16T08:54:14.325Z,566
2014-10-16T08:54:32.637Z,568
2014-10-16T08:54:51.153Z,570
2014-10-16T08:55:09.262Z,572
2014-10-16T08:55:27.575Z,575
2014-10-16T08:55:45.887Z,570
2014-10-16T08:56:04.200Z,563
2014-10-16T08:56:22.512Z,564
2014-10-16T08:56:41.012Z,567
2014-10-16T08:56:59.122Z,570
2014-10-16T08:57:17.637Z,572
2014-10-16T08:57:35.950Z,589
2014-10-16T08:57:54.059Z,584
2014-10-16T08:58:12.372Z,547
2014-10-16T08:58:30.684Z,592
2014-10-16T08:58:49.184Z,593
2014-10-16T08:59:07.294Z,593
2014-10-16T08:59:25.809Z,593
2014-10-16T08:59:44.122Z,591
2014-10-16T09:00:02.231Z,591
2014-10-16T09:00:20.544Z,592
2014-10-16T09:00:38.856Z,593
2014-10-16T09:00:57.169Z,594
2014-10-16T09:01:15.684Z,594
2014-10-16T09:01:33.794Z,587
2014-10-16T09:01:52.106Z,591
2014-10-16T09:02:10.606Z,596
2014-10-16T09:02:28.715Z,597
2014-10-16T09:02:47.044Z,597
2014-10-16T09:03:05.356Z,598
2014-10-16T09:03:23.669Z,598
2014-10-16T09:03:41.981Z,599
2014-10-16T09:04:00.294Z,599
2014-10-16T09:04:18.794Z,599
2014-10-16T09:04:36.903Z,599
2014-10-16T09:04:55.215Z,598
2014-10-16T09:05:13.528Z,598
2014-10-16T09:05:32.044Z,597
2014-10-16T09:05:50.356Z,595
2014-10-16T09:06:08.669Z,593
2014-10-16T09:06:26.778Z,591
2014-10-16T09:06:45.309Z,589
2014-10-16T09:07:03.403Z,587
2014-10-16T09:07:21.715Z,585
2014-10-16T09:07:40.247Z,582
2014-10-16T09:07:58.528Z,580
2014-10-16T09:08:16.637Z,578
2014-10-16T09:08:34.950Z,577
2014-10-16T09:08:53.262Z,575
2014-10-16T09:09:11.575Z,573
2014-10-16T09:09:29.887Z,571
2014-10-16T09:29:30.122Z,632
2014-10-16T09:29:48.434Z,632
2014-10-16T09:30:06.731Z,635
2014-10-16T09:30:25.059Z,634
2014-10-16T09:30:43.372Z,641
2014-10-16T09:31:01.887Z,639
2014-10-16T09:31:19.997Z,640
2014-10-16T09:31:38.497Z,642
2014-10-16T09:31:56.622Z,643
2014-10-16T09:32:14.919Z,647
2014-10-16T09:32:33.434Z,648
2014-10-16T09:32:51.543Z,649
2014-10-16T09:33:09.855Z,648
2014-10-16T09:33:28.168Z,650
2014-10-16T09:33:46.480Z,650
2014-10-16T09:34:04.997Z,651
2014-10-16T09:34:23.106Z,655
2014-10-16T09:34:41.419Z,654
2014-10-16T09:34:59.934Z,655
2014-10-16T09:35:18.247Z,656
2014-10-16T09:35:36.356Z,660
2014-10-16T09:35:54.872Z,650
2014-10-16T09:36:13.184Z,651
2014-10-16T09:36:31.294Z,666
2014-10-16T09:36:49.606Z,671
2014-10-16T09:37:08.309Z,675
2014-10-16T09:37:26.419Z,676
2014-10-16T09:37:44.528Z,678
2014-10-16T09:38:03.044Z,679
2014-10-16T09:38:21.169Z,681
2014-10-16T09:38:39.715Z,681
2014-10-16T09:38:57.825Z,680
2014-10-16T09:39:16.339Z,689
2014-10-16T09:39:34.449Z,691
2014-10-16T09:39:52.777Z,693
2014-10-16T09:40:11.277Z,695
2014-10-16T09:40:29.590Z,697
2014-10-16T09:40:47.903Z,699
2014-10-16T09:41:06.215Z,701
2014-10-16T09:41:24.325Z,704
2014-10-16T09:41:42.637Z,706
2014-10-16T09:42:00.950Z,709
2014-10-16T09:42:19.465Z,711
2014-10-16T09:42:37.590Z,713
2014-10-16T09:42:55.887Z,715
2014-10-16T09:43:14.200Z,717
2014-10-16T09:43:32.714Z,719
2014-10-16T09:43:51.027Z,722
2014-10-16T09:44:09.136Z,723
2014-10-16T09:44:27.449Z,723
2014-10-16T09:44:45.965Z,723
2014-10-16T09:45:04.278Z,702
2014-10-16T09:45:22.590Z,681
2014-10-16T09:45:40.700Z,678
2014-10-16T09:45:59.012Z,678
2014-10-16T09:46:17.528Z,677
2014-10-16T09:46:35.840Z,679
2014-10-16T09:46:54.153Z,680
2014-10-16T09:47:12.262Z,681
2014-10-16T09:47:30.575Z,684
2014-10-16T09:47:48.887Z,685
2014-10-16T09:48:07.200Z,687
2014-10-16T09:48:25.731Z,696
2014-10-16T09:48:43.840Z,701
2014-10-16T09:49:02.153Z,702
2014-10-16T09:49:20.669Z,707
2014-10-16T09:49:38.778Z,716
2014-10-16T09:49:57.090Z,711
2014-10-16T09:50:15.419Z,713
2014-10-16T09:50:33.919Z,704
2014-10-16T09:50:52.028Z,705
2014-10-16T09:51:10.340Z,696
2014-10-16T09:51:28.840Z,685
2014-10-16T09:51:47.153Z,673
2014-10-16T09:52:05.261Z,666
2014-10-16T09:52:23.777Z,661
2014-10-16T09:52:42.089Z,657
2014-10-16T09:53:00.402Z,655
2014-10-16T09:53:18.715Z,653
2014-10-16T09:53:36.825Z,651
2014-10-16T09:53:55.137Z,650
2014-10-16T09:54:13.653Z,648
2014-10-16T09:54:31.965Z,647
2014-10-16T09:54:50.075Z,645
2014-10-16T09:55:08.387Z,640
2014-10-16T09:55:26.903Z,641
2014-10-16T09:55:45.215Z,640
2014-10-16T09:56:03.325Z,645
2014-10-16T09:56:21.636Z,646
2014-10-16T09:56:39.949Z,648
2014-10-16T09:56:58.261Z,612
2014-10-16T09:57:16.574Z,652
2014-10-16T09:57:34.887Z,657
2014-10-16T09:57:53.403Z,672
2014-10-16T09:58:11.512Z,673
2014-10-16T09:58:29.825Z,669
2014-10-16T09:58:48.153Z,668
2014-10-16T09:59:06.465Z,659
2014-10-16T09:59:24.778Z,657
2014-10-16T09:59:43.090Z,654
2014-10-16T10:00:01.606Z,655
2014-10-16T10:00:19.919Z,658
2014-10-16T10:00:38.028Z,656
2014-10-16T10:00:56.340Z,608
2014-10-16T10:01:14.653Z,650
2014-10-16T10:01:33.169Z,650
2014-10-16T10:01:51.278Z,646
2014-10-16T10:02:09.794Z,644
2014-10-16T10:02:27.903Z,642
2014-10-16T10:02:46.231Z,632
2014-10-16T10:03:04.528Z,637
2014-10-16T10:03:23.044Z,634
2014-10-16T10:03:41.153Z,632
2014-10-16T10:03:59.465Z,633
2014-10-16T10:04:17.981Z,632
2014-10-16T10:04:36.278Z,626
2014-10-16T10:04:54.590Z,616
2014-10-16T10:05:12.903Z,611
